Time;durP1;ratioP1;P1;durP2;ratioP2;P2;SDS_P1;SDS_P2;PMS_P1;PMS_P2;Temp;Humidity;BMP_temperature;BMP_pressure;BME280_temperature;BME280_humidity;BME280_pressure;Samples;Min_cycle;Max_cycle;Signal;HPM_P1;HPM_P2
2022/06/07 00:00:00;;;;;;;;;21.67;21.67;27.50;48.30;;;;;;5076694;28;11590;-74
2022/06/07 00:02:29;;;;;;;;;21.67;20.67;27.60;48.30;;;;;;5076913;28;11452;-75
2022/06/07 00:04:55;;;;;;;;;25.67;25.67;27.60;48.20;;;;;;5076138;28;8791;-75
2022/06/07 00:07:22;;;;;;;;;21.33;21.33;27.60;48.20;;;;;;5076709;28;8773;-74
2022/06/07 00:09:48;;;;;;;;;20.33;20.33;27.70;48.10;;;;;;5076785;28;11507;-74
2022/06/07 00:12:13;;;;;;;;;22.33;22.33;27.80;48.10;;;;;;5076625;28;11430;-74
2022/06/07 00:14:39;;;;;;;;;25.33;25.33;27.80;48.00;;;;;;5076537;28;8798;-74
2022/06/07 00:17:05;;;;;;;;;22.67;22.67;27.80;48.00;;;;;;5076155;28;8853;-74
2022/06/07 00:19:35;;;;;;;;;22.33;22.33;27.80;48.10;;;;;;5076424;28;8822;-74
2022/06/07 00:22:02;;;;;;;;;17.00;17.00;27.70;48.00;;;;;;5076334;28;8778;-72
2022/06/07 00:24:28;;;;;;;;;19.00;19.00;27.70;47.80;;;;;;5087253;28;8787;-74
2022/06/07 00:26:54;;;;;;;;;27.33;27.33;27.80;48.00;;;;;;5087618;28;8784;-72
2022/06/07 00:29:22;;;;;;;;;20.00;20.00;27.70;48.20;;;;;;5096536;28;8763;-75
2022/06/07 00:31:48;;;;;;;;;23.00;23.00;27.70;48.30;;;;;;5096348;28;11433;-75
2022/06/07 00:34:15;;;;;;;;;19.00;19.00;27.50;48.30;;;;;;5096333;28;8890;-75
2022/06/07 00:36:41;;;;;;;;;20.33;20.33;27.40;48.60;;;;;;5096286;28;8812;-75
2022/06/07 00:39:08;;;;;;;;;23.00;23.00;27.20;49.30;;;;;;5078272;28;11432;-75
2022/06/07 00:41:34;;;;;;;;;19.00;19.00;27.30;49.20;;;;;;5096272;28;8794;-74
2022/06/07 00:44:21;;;;;;;;;22.00;22.00;27.40;49.00;;;;;;5096155;28;11484;-75
2022/06/07 00:47:01;;;;;;;;;22.33;21.33;27.50;48.90;;;;;;5096410;28;11546;-75
2022/06/07 00:49:31;;;;;;;;;24.00;23.33;27.40;48.70;;;;;;5094630;28;11511;-74
2022/06/07 00:51:57;;;;;;;;;21.00;21.00;27.40;48.50;;;;;;5085075;28;8768;-75
2022/06/07 00:54:27;;;;;;;;;20.67;20.67;27.30;48.60;;;;;;5088746;28;11544;-75
2022/06/07 00:56:53;;;;;;;;;23.00;22.00;27.50;48.30;;;;;;5057998;28;8831;-75
2022/06/07 00:59:19;;;;;;;;;25.67;25.67;27.50;48.20;;;;;;5075799;28;8747;-75
2022/06/07 01:01:46;;;;;;;;;17.00;17.00;27.40;48.40;;;;;;5075928;28;8762;-74
2022/06/07 01:04:11;;;;;;;;;20.67;20.67;27.20;48.10;;;;;;5075726;28;8858;-75
2022/06/07 01:12:06;;;;;;;;;26.67;26.67;26.70;49.40;;;;;;5075526;28;8758;-76
2022/06/07 01:14:32;;;;;;;;;24.67;24.67;26.90;49.50;;;;;;5075454;28;8908;-75
2022/06/07 01:16:58;;;;;;;;;22.00;22.00;26.90;49.50;;;;;;5074104;28;9591;-76
2022/06/07 01:19:25;;;;;;;;;22.67;22.67;26.50;49.80;;;;;;5075483;28;8796;-75
2022/06/07 01:21:51;;;;;;;;;20.67;20.67;26.80;49.80;;;;;;5075162;28;8848;-74
2022/06/07 01:24:17;;;;;;;;;21.33;21.33;26.80;49.80;;;;;;5075131;28;8767;-75
2022/06/07 01:26:44;;;;;;;;;24.00;24.00;26.90;49.70;;;;;;5075200;28;8758;-75
2022/06/07 01:29:11;;;;;;;;;26.00;25.00;26.90;49.70;;;;;;5075110;28;8782;-75
2022/06/07 01:31:37;;;;;;;;;30.33;30.00;27.00;49.40;;;;;;5075317;28;8770;-75
2022/06/07 01:34:04;;;;;;;;;24.33;24.33;27.00;49.60;;;;;;5075041;28;8770;-74
2022/06/07 01:36:30;;;;;;;;;27.33;27.33;27.10;49.50;;;;;;5074911;28;8814;-75
2022/06/07 01:41:55;;;;;;;;;25.33;25.33;27.20;49.20;;;;;;5074960;28;9376;-72
2022/06/07 01:44:28;;;;;;;;;18.33;18.33;27.10;50.20;;;;;;5075119;28;8757;-73
2022/06/07 01:46:56;;;;;;;;;24.33;24.33;27.00;49.20;;;;;;5074707;28;9455;-73
2022/06/07 01:49:23;;;;;;;;;24.00;23.33;26.80;49.80;;;;;;5074957;28;8750;-73
2022/06/07 01:51:51;;;;;;;;;25.00;25.00;26.60;50.00;;;;;;5074749;28;8838;-75
2022/06/07 01:54:17;;;;;;;;;24.33;24.33;26.70;50.60;;;;;;5074920;28;8786;-75
2022/06/07 01:56:42;;;;;;;;;25.33;25.33;26.90;50.20;;;;;;5074552;28;8828;-75
2022/06/07 01:59:09;;;;;;;;;27.00;27.00;27.10;50.00;;;;;;5057268;28;8750;-75
2022/06/07 02:01:36;;;;;;;;;23.00;23.00;27.10;49.70;;;;;;5074605;28;8765;-76
2022/06/07 02:04:03;;;;;;;;;24.33;24.33;27.10;49.60;;;;;;5074734;28;8846;-75
2022/06/07 02:06:29;;;;;;;;;26.33;26.33;26.70;49.30;;;;;;5074716;28;8762;-74
2022/06/07 02:08:55;;;;;;;;;28.67;28.67;26.60;50.20;;;;;;5074511;28;8772;-75
2022/06/07 02:11:26;;;;;;;;;21.00;21.00;26.40;50.50;;;;;;5075312;28;8812;-74
2022/06/07 02:13:53;;;;;;;;;24.00;24.00;26.40;50.70;;;;;;5087950;28;8778;-72
2022/06/07 02:16:20;;;;;;;;;25.00;25.00;26.30;50.80;;;;;;5087530;28;8836;-72
2022/06/07 02:18:47;;;;;;;;;27.00;27.00;26.50;50.90;;;;;;5094503;28;8783;-72
2022/06/07 02:21:14;;;;;;;;;27.33;27.33;26.60;50.80;;;;;;5094491;28;8784;-75
2022/06/07 02:23:40;;;;;;;;;24.00;24.00;26.60;50.30;;;;;;5094598;28;8786;-75
2022/06/07 02:26:21;;;;;;;;;22.33;22.33;26.40;50.40;;;;;;5094528;28;8768;-74
2022/06/07 02:29:01;;;;;;;;;29.00;29.00;26.10;51.10;;;;;;5094257;28;8889;-74
2022/06/07 02:31:30;;;;;;;;;24.00;24.00;26.20;51.50;;;;;;5094461;28;8771;-75
2022/06/07 02:33:58;;;;;;;;;19.67;19.67;26.30;51.00;;;;;;5094497;28;8863;-75
2022/06/07 02:36:26;;;;;;;;;24.00;24.00;26.30;50.50;;;;;;5094728;28;8820;-75
2022/06/07 02:38:51;;;;;;;;;25.00;25.00;26.30;50.80;;;;;;5094563;28;9460;-75
2022/06/07 02:41:22;;;;;;;;;23.67;23.67;26.20;50.90;;;;;;5094590;28;8764;-75
2022/06/07 02:43:48;;;;;;;;;19.00;19.00;26.30;50.90;;;;;;5094372;28;8767;-75
2022/06/07 02:46:14;;;;;;;;;24.33;24.33;26.00;51.00;;;;;;5094728;28;8841;-75
2022/06/07 02:48:40;;;;;;;;;24.00;24.00;26.00;51.50;;;;;;5094374;28;8887;-74
2022/06/07 02:51:06;;;;;;;;;25.67;25.67;26.00;51.60;;;;;;5094343;28;9400;-75
2022/06/07 02:53:32;;;;;;;;;24.33;24.33;25.60;52.50;;;;;;5094202;28;8840;-75
2022/06/07 02:55:58;;;;;;;;;26.00;26.00;25.40;53.20;;;;;;5094416;28;8867;-74
2022/06/07 02:58:25;;;;;;;;;22.33;22.33;25.30;53.40;;;;;;5094097;28;8835;-72
2022/06/07 03:00:52;;;;;;;;;25.67;25.67;25.30;53.70;;;;;;5090352;28;8766;-72
2022/06/07 03:03:18;;;;;;;;;26.33;25.67;25.30;54.30;;;;;;5081289;28;8771;-72
2022/06/07 03:05:44;;;;;;;;;24.33;24.33;25.40;53.50;;;;;;5080201;28;8766;-75
2022/06/07 03:08:09;;;;;;;;;24.33;24.33;25.60;53.40;;;;;;5073820;28;8786;-75
2022/06/07 03:10:35;;;;;;;;;29.67;28.67;25.80;52.80;;;;;;5073474;28;8805;-75
2022/06/07 03:13:01;;;;;;;;;24.33;24.33;25.90;52.40;;;;;;5073870;28;8788;-74
2022/06/07 03:15:28;;;;;;;;;26.67;26.67;26.00;52.10;;;;;;5073868;28;8857;-75
2022/06/07 03:17:54;;;;;;;;;21.67;21.67;26.10;51.80;;;;;;5073912;28;8809;-75
2022/06/07 03:20:20;;;;;;;;;26.67;26.67;26.00;52.00;;;;;;5073712;28;9439;-75
2022/06/07 03:22:46;;;;;;;;;23.67;23.67;26.10;51.70;;;;;;5073904;28;8773;-75
2022/06/07 03:25:12;;;;;;;;;21.67;21.67;26.30;51.60;;;;;;5073652;28;8789;-72
2022/06/07 03:27:39;;;;;;;;;23.00;23.00;26.30;51.50;;;;;;5076394;28;8797;-75
2022/06/07 03:30:08;;;;;;;;;29.67;29.67;26.10;52.10;;;;;;5093104;28;8776;-75
2022/06/07 03:32:35;;;;;;;;;29.33;29.33;26.20;51.70;;;;;;5083557;28;8761;-75
2022/06/07 03:35:01;;;;;;;;;27.33;26.33;26.30;51.40;;;;;;5075181;28;8874;-75
2022/06/07 03:37:27;;;;;;;;;23.33;23.00;26.30;51.20;;;;;;5087096;28;9451;-75
2022/06/07 03:39:53;;;;;;;;;27.67;27.67;26.40;50.90;;;;;;5079313;28;8867;-75
2022/06/07 03:42:19;;;;;;;;;28.33;28.33;26.40;50.80;;;;;;5077187;28;8776;-74
2022/06/07 03:44:48;;;;;;;;;26.00;26.00;26.30;50.80;;;;;;5077269;28;8770;-74
2022/06/07 03:47:15;;;;;;;;;20.00;20.00;25.90;51.80;;;;;;5077072;28;8796;-75
2022/06/07 03:49:41;;;;;;;;;26.33;26.33;26.00;51.60;;;;;;5059308;28;8778;-74
2022/06/07 03:52:07;;;;;;;;;27.33;27.33;25.90;51.50;;;;;;5077041;28;8872;-74
2022/06/07 03:54:33;;;;;;;;;24.00;24.00;25.80;51.80;;;;;;5076972;28;8742;-75
2022/06/07 03:56:59;;;;;;;;;28.00;28.00;25.70;52.30;;;;;;5059530;28;8915;-75
2022/06/07 03:59:27;;;;;;;;;23.67;23.67;25.70;52.60;;;;;;5076800;28;8819;-74
2022/06/07 04:01:53;;;;;;;;;23.33;23.33;26.00;51.90;;;;;;5077859;28;8783;-74
2022/06/07 04:04:19;;;;;;;;;23.67;23.67;26.20;51.40;;;;;;5082189;28;8782;-74
2022/06/07 04:09:32;;;;;;;;;26.00;26.00;26.40;51.00;;;;;;5097253;28;8732;-74
2022/06/07 04:11:58;;;;;;;;;23.67;23.67;26.40;51.20;;;;;;5096398;28;8740;-74
2022/06/07 04:14:24;;;;;;;;;24.67;24.67;26.40;51.00;;;;;;5096724;28;8784;-74
2022/06/07 04:16:50;;;;;;;;;28.33;28.33;26.30;50.50;;;;;;5096479;28;8852;-75
2022/06/07 04:19:15;;;;;;;;;26.33;26.33;26.40;50.60;;;;;;5096562;28;8802;-72
2022/06/07 04:21:41;;;;;;;;;28.33;28.33;26.40;50.40;;;;;;5089027;28;8790;-74
2022/06/07 04:24:07;;;;;;;;;27.67;27.67;26.50;50.30;;;;;;5095246;28;8809;-74
2022/06/07 04:26:33;;;;;;;;;26.33;26.33;26.50;50.10;;;;;;5089402;28;8810;-74
2022/06/07 04:28:58;;;;;;;;;26.33;26.33;26.40;50.80;;;;;;5084080;28;8980;-74
2022/06/07 04:31:26;;;;;;;;;29.33;29.33;26.30;51.40;;;;;;5094708;28;8744;-74
2022/06/07 04:33:56;;;;;;;;;23.33;23.33;26.30;51.50;;;;;;5087508;28;8773;-75
2022/06/07 04:36:24;;;;;;;;;29.33;29.33;26.30;51.30;;;;;;5086218;28;8892;-75
2022/06/07 04:38:51;;;;;;;;;29.67;29.67;26.30;51.20;;;;;;5084878;28;8811;-76
2022/06/07 04:41:19;;;;;;;;;27.00;27.00;26.20;51.20;;;;;;5095659;28;8767;-73
2022/06/07 04:43:49;;;;;;;;;23.00;23.00;26.00;51.30;;;;;;5096109;28;8759;-75
2022/06/07 04:46:16;;;;;;;;;27.33;27.33;26.00;51.80;;;;;;5067318;28;8800;-72
2022/06/07 04:48:44;;;;;;;;;31.00;31.00;26.00;52.10;;;;;;5078143;28;8758;-73
2022/06/07 04:51:12;;;;;;;;;33.00;32.00;26.00;52.20;;;;;;5082370;28;8752;-73
2022/06/07 04:53:39;;;;;;;;;30.67;30.67;25.80;53.00;;;;;;5083323;28;8762;-72
2022/06/07 04:56:16;;;;;;;;;31.33;30.67;25.90;52.90;;;;;;5086874;28;8762;-74
2022/06/07 04:58:42;;;;;;;;;30.33;30.33;26.10;52.30;;;;;;5075946;28;8794;-74
2022/06/07 05:01:14;;;;;;;;;28.33;28.33;26.30;51.50;;;;;;5075264;28;8785;-72
2022/06/07 05:03:40;;;;;;;;;27.00;27.00;26.60;51.00;;;;;;5083097;28;8773;-74
2022/06/07 05:06:28;;;;;;;;;34.67;33.00;26.70;50.30;;;;;;5092822;28;8802;-73
2022/06/07 05:09:04;;;;;;;;;32.00;31.00;26.80;50.30;;;;;;5084998;28;8801;-73
2022/06/07 05:11:30;;;;;;;;;29.33;29.33;26.90;49.80;;;;;;5074804;28;8866;-73
2022/06/07 05:13:59;;;;;;;;;31.33;30.33;26.90;49.80;;;;;;5057510;28;8766;-74
2022/06/07 05:16:26;;;;;;;;;28.67;28.67;26.90;49.60;;;;;;5074735;28;8814;-74
2022/06/07 05:18:53;;;;;;;;;26.33;26.00;27.00;49.50;;;;;;5075186;28;8781;-74
2022/06/07 05:21:20;;;;;;;;;32.67;31.33;27.10;49.20;;;;;;5075423;28;8790;-73
2022/06/07 05:23:46;;;;;;;;;29.00;29.00;27.10;49.00;;;;;;5075402;28;8831;-74
2022/06/07 05:26:29;;;;;;;;;28.00;28.00;27.20;48.60;;;;;;5075253;28;8857;-74
2022/06/07 05:28:56;;;;;;;;;28.00;28.00;27.20;48.40;;;;;;5075098;28;8766;-74
2022/06/07 05:31:23;;;;;;;;;30.00;30.00;27.30;48.40;;;;;;5074746;28;8831;-73
2022/06/07 05:33:49;;;;;;;;;24.00;24.00;27.30;48.80;;;;;;5056882;28;8872;-73
2022/06/07 05:36:16;;;;;;;;;28.33;28.33;27.40;48.20;;;;;;5074589;28;8859;-73
2022/06/07 05:38:42;;;;;;;;;29.67;29.67;27.40;48.20;;;;;;5074940;28;8856;-73
2022/06/07 05:41:17;;;;;;;;;25.00;25.00;27.30;48.60;;;;;;5057100;28;8778;-73
2022/06/07 05:43:43;;;;;;;;;27.67;27.67;27.30;48.30;;;;;;5075022;28;8782;-73
2022/06/07 05:46:09;;;;;;;;;27.00;27.00;27.40;48.20;;;;;;5074852;28;8790;-75
2022/06/07 05:48:35;;;;;;;;;22.33;22.33;27.40;48.10;;;;;;5074667;28;8916;-73
2022/06/07 05:51:01;;;;;;;;;25.67;25.67;27.30;48.30;;;;;;5074628;28;8777;-74
2022/06/07 05:53:27;;;;;;;;;28.00;28.00;27.40;48.20;;;;;;5074872;28;8765;-74
2022/06/07 05:55:54;;;;;;;;;30.67;30.00;27.50;48.20;;;;;;5074640;28;8762;-73
2022/06/07 05:58:20;;;;;;;;;26.33;26.33;27.40;48.50;;;;;;5074652;28;8782;-74
2022/06/07 06:00:46;;;;;;;;;23.00;23.00;27.20;48.90;;;;;;5074782;28;9490;-73
2022/06/07 06:03:13;;;;;;;;;26.67;26.67;27.20;49.10;;;;;;5074076;28;8862;-74
2022/06/07 06:05:47;;;;;;;;;29.00;29.00;27.10;49.50;;;;;;5074464;28;9478;-73
2022/06/07 06:11:10;;;;;;;;;25.67;25.67;27.30;49.50;;;;;;5087813;28;8823;-73
2022/06/07 06:13:36;;;;;;;;;28.33;28.33;27.50;48.70;;;;;;5094266;28;8898;-74
2022/06/07 06:16:05;;;;;;;;;31.33;30.33;27.50;49.00;;;;;;5094407;28;8830;-73
2022/06/07 06:18:31;;;;;;;;;26.33;26.33;27.60;49.00;;;;;;5094402;28;8827;-74
2022/06/07 06:20:56;;;;;;;;;26.33;26.33;27.70;48.80;;;;;;5094533;28;8744;-74
2022/06/07 06:23:22;;;;;;;;;28.00;28.00;27.80;48.60;;;;;;5094340;28;8783;-74
2022/06/07 06:25:48;;;;;;;;;26.33;26.33;27.70;48.10;;;;;;5094426;28;8756;-74
2022/06/07 06:28:14;;;;;;;;;26.33;26.33;27.70;48.40;;;;;;5094439;28;8776;-74
2022/06/07 06:30:44;;;;;;;;;26.33;26.33;27.70;48.30;;;;;;5094599;28;8784;-74
2022/06/07 06:33:12;;;;;;;;;25.33;25.33;27.80;48.20;;;;;;5094336;28;8776;-74
2022/06/07 06:35:39;;;;;;;;;24.00;24.00;27.90;48.00;;;;;;5094504;28;8784;-73
2022/06/07 06:38:05;;;;;;;;;22.67;22.67;27.90;48.10;;;;;;5094040;28;8819;-74
2022/06/07 06:40:31;;;;;;;;;26.00;26.00;28.00;48.30;;;;;;5094215;28;8779;-73
2022/06/07 06:42:57;;;;;;;;;19.00;19.00;28.10;47.80;;;;;;5094346;28;8771;-74
2022/06/07 06:45:22;;;;;;;;;26.00;26.00;28.10;47.60;;;;;;5094511;28;9535;-70
2022/06/07 06:47:48;;;;;;;;;22.33;22.33;28.20;47.60;;;;;;5094425;28;8740;-70
2022/06/07 06:50:14;;;;;;;;;22.67;22.67;28.30;47.50;;;;;;5094316;28;9409;-70
2022/06/07 06:52:40;;;;;;;;;25.00;25.00;28.30;46.50;;;;;;5094156;28;8810;-71
2022/06/07 06:55:07;;;;;;;;;20.00;20.00;28.40;46.20;;;;;;5094167;28;8771;-71
2022/06/07 06:57:33;;;;;;;;;23.00;23.00;28.50;46.90;;;;;;5094428;28;8802;-70
2022/06/07 06:59:58;;;;;;;;;24.33;24.33;28.50;45.60;;;;;;5094205;28;11448;-71
2022/06/07 07:02:24;;;;;;;;;23.00;23.00;28.50;45.70;;;;;;5094373;28;8748;-70
2022/06/07 07:04:50;;;;;;;;;21.67;21.67;28.40;46.00;;;;;;5094198;28;8772;-70
2022/06/07 07:07:15;;;;;;;;;21.33;21.33;28.50;45.80;;;;;;5094219;28;8764;-70
2022/06/07 07:09:41;;;;;;;;;18.00;18.00;28.60;46.00;;;;;;5093922;28;9517;-70
2022/06/07 07:12:08;;;;;;;;;24.33;24.33;28.70;46.10;;;;;;5094181;28;8783;-71
2022/06/07 07:14:33;;;;;;;;;22.33;22.33;28.70;45.80;;;;;;5093810;28;11516;-71
2022/06/07 07:16:59;;;;;;;;;24.67;24.67;28.70;45.50;;;;;;5096866;28;11555;-71
2022/06/07 07:19:25;;;;;;;;;21.33;21.33;28.60;45.80;;;;;;5097599;28;9369;-71
2022/06/07 07:21:51;;;;;;;;;17.33;17.33;28.70;45.20;;;;;;5079481;28;8882;-70
2022/06/07 07:24:21;;;;;;;;;20.33;20.33;28.60;44.60;;;;;;5097723;28;8932;-71
2022/06/07 07:26:48;;;;;;;;;22.00;22.00;28.70;44.10;;;;;;5097539;28;11542;-72
2022/06/07 07:29:17;;;;;;;;;17.33;17.33;28.70;44.10;;;;;;5097492;28;11472;-72
2022/06/07 07:31:43;;;;;;;;;20.00;20.00;28.60;43.80;;;;;;5097345;28;11455;-71
2022/06/07 07:34:11;;;;;;;;;19.67;19.67;28.70;44.40;;;;;;5097406;28;11549;-71
2022/06/07 07:36:49;;;;;;;;;25.00;25.00;28.70;44.60;;;;;;5097224;28;11493;-71
2022/06/07 07:39:15;;;;;;;;;24.33;24.33;28.70;44.50;;;;;;5097333;28;11522;-71
2022/06/07 07:41:45;;;;;;;;;25.00;25.00;29.00;44.10;;;;;;5096789;28;11442;-71
2022/06/07 07:44:14;;;;;;;;;19.67;19.67;28.90;43.80;;;;;;5097130;28;8784;-71
2022/06/07 07:46:43;;;;;;;;;32.00;31.00;28.80;43.20;;;;;;5097128;28;11516;-71
2022/06/07 07:49:10;;;;;;;;;20.67;20.67;28.80;44.30;;;;;;5096723;28;8763;-71
2022/06/07 07:51:39;;;;;;;;;21.00;21.00;28.60;44.30;;;;;;5097049;28;11446;-71
2022/06/07 07:54:07;;;;;;;;;16.00;16.00;28.60;44.20;;;;;;5097070;28;11524;-71
2022/06/07 07:56:33;;;;;;;;;20.33;20.33;28.80;43.50;;;;;;5078806;28;11451;-71
2022/06/07 07:59:02;;;;;;;;;30.33;30.00;28.80;42.60;;;;;;5096861;28;11452;-71
2022/06/07 08:01:29;;;;;;;;;29.33;29.33;29.00;42.70;;;;;;5096784;28;8779;-71
2022/06/07 08:03:57;;;;;;;;;24.33;24.33;29.20;42.80;;;;;;5096992;28;8817;-71
2022/06/07 08:06:25;;;;;;;;;24.00;24.00;29.20;42.00;;;;;;5096678;28;8756;-72
2022/06/07 08:08:53;;;;;;;;;19.25;19.25;29.30;41.90;;;;;;5096562;28;11469;-71
2022/06/07 08:11:22;;;;;;;;;21.33;21.33;29.10;41.30;;;;;;5096611;28;11470;-71
2022/06/07 08:13:49;;;;;;;;;17.25;17.25;29.00;42.10;;;;;;5096441;28;11435;-71
2022/06/07 08:16:15;;;;;;;;;18.00;18.00;29.10;42.60;;;;;;5096400;28;11514;-71
2022/06/07 08:18:41;;;;;;;;;17.75;17.75;29.10;42.40;;;;;;5096376;28;12190;-71
2022/06/07 08:21:13;;;;;;;;;16.00;16.00;29.10;41.50;;;;;;5096404;28;8784;-71
2022/06/07 08:23:39;;;;;;;;;18.50;18.50;29.10;41.50;;;;;;5096570;28;11408;-72
2022/06/07 08:26:07;;;;;;;;;20.25;20.25;29.30;41.70;;;;;;5095897;28;11464;-71
2022/06/07 08:28:34;;;;;;;;;16.25;16.25;29.40;41.70;;;;;;5096629;28;8768;-73
2022/06/07 08:31:00;;;;;;;;;20.75;20.75;29.30;41.40;;;;;;5095860;28;11475;-74
2022/06/07 08:38:59;;;;;;;;;15.75;15.75;29.60;40.60;;;;;;5096066;28;11464;-72
2022/06/07 08:41:32;;;;;;;;;20.00;20.00;29.50;40.80;;;;;;5095912;28;11530;-74
2022/06/07 08:44:15;;;;;;;;;17.25;17.25;29.40;40.80;;;;;;5096027;28;11443;-71
2022/06/07 08:46:41;;;;;;;;;15.00;15.00;29.40;41.30;;;;;;5095789;28;11627;-71
2022/06/07 08:49:10;;;;;;;;;17.00;17.00;29.80;40.40;;;;;;5095835;28;11578;-71
2022/06/07 08:51:50;;;;;;;;;20.75;20.75;30.20;39.80;;;;;;5095960;28;8779;-72
2022/06/07 08:54:20;;;;;;;;;16.75;16.75;30.40;38.50;;;;;;5095875;28;11472;-74
2022/06/07 08:56:47;;;;;;;;;16.00;16.00;30.70;39.20;;;;;;5096050;28;12022;-73
2022/06/07 08:59:17;;;;;;;;;16.25;16.25;31.00;38.30;;;;;;5095970;28;11544;-70
2022/06/07 09:01:47;;;;;;;;;17.00;17.00;31.20;37.60;;;;;;5095655;28;11539;-73
2022/06/07 09:04:14;;;;;;;;;17.75;17.75;31.50;37.30;;;;;;5095641;28;11438;-73
2022/06/07 09:06:43;;;;;;;;;15.25;15.25;31.60;36.50;;;;;;5095649;28;11443;-73
2022/06/07 09:09:11;;;;;;;;;13.25;13.25;31.70;36.60;;;;;;5095484;28;12087;-74
2022/06/07 09:14:42;;;;;;;;;16.50;16.50;32.00;36.10;;;;;;5095607;28;11411;-77
2022/06/07 09:17:15;;;;;;;;;18.25;18.25;32.20;36.20;;;;;;5095010;28;11639;-73
2022/06/07 09:19:43;;;;;;;;;12.50;12.50;32.40;35.50;;;;;;5095618;28;11430;-74
2022/06/07 09:22:25;;;;;;;;;17.00;17.00;32.40;35.20;;;;;;5095327;28;11495;-78
2022/06/07 09:25:26;;;;;;;;;15.50;15.50;32.40;34.90;;;;;;5095303;28;11595;-76
2022/06/07 09:27:53;;;;;;;;;18.00;18.00;32.10;35.10;;;;;;5084376;28;11542;-78
2022/06/07 09:30:47;;;;;;;;;17.75;17.75;32.40;35.60;;;;;;5095424;28;12060;-77
2022/06/07 09:33:28;;;;;;;;;18.00;18.00;32.60;34.40;;;;;;5094330;28;11540;-75
2022/06/07 09:36:08;;;;;;;;;16.50;16.50;33.20;34.40;;;;;;5095244;28;11461;-76
2022/06/07 09:38:46;;;;;;;;;17.25;17.25;33.20;33.50;;;;;;5094212;28;11469;-80
2022/06/07 09:41:36;;;;;;;;;18.75;18.75;33.30;34.40;;;;;;5094870;28;11544;-78
2022/06/07 09:44:35;;;;;;;;;19.00;19.00;33.40;34.20;;;;;;5094986;28;11537;-82
2022/06/07 09:47:04;;;;;;;;;17.25;17.25;33.50;34.00;;;;;;5095178;28;12142;-82
2022/06/07 09:49:41;;;;;;;;;18.25;18.25;33.50;34.10;;;;;;5094767;28;11445;-80
2022/06/07 09:52:20;;;;;;;;;16.25;16.25;33.90;34.10;;;;;;5094951;28;11436;-74
2022/06/07 09:54:49;;;;;;;;;15.25;15.25;34.20;33.30;;;;;;5094995;28;11457;-78
2022/06/07 09:57:39;;;;;;;;;17.50;17.50;34.30;33.00;;;;;;5076694;28;11468;-76
2022/06/07 10:00:32;;;;;;;;;17.50;17.50;34.20;32.60;;;;;;5084714;28;11469;-75
2022/06/07 10:03:29;;;;;;;;;19.50;19.50;34.30;32.40;;;;;;5094612;28;11440;-74
2022/06/07 10:06:11;;;;;;;;;20.67;20.67;34.50;34.00;;;;;;5094804;28;11473;-77
2022/06/07 10:08:44;;;;;;;;;21.50;21.50;34.90;32.20;;;;;;5094581;28;11469;-75
2022/06/07 10:11:46;;;;;;;;;17.00;17.00;35.30;31.60;;;;;;5094582;28;11462;-76
2022/06/07 10:14:15;;;;;;;;;19.00;19.00;35.80;32.10;;;;;;5094544;28;11447;-74
2022/06/07 10:17:02;;;;;;;;;18.50;18.50;36.10;30.90;;;;;;5094212;28;11565;-74
2022/06/07 10:20:01;;;;;;;;;18.67;18.67;36.10;30.20;;;;;;5094603;28;12057;-76
2022/06/07 10:22:33;;;;;;;;;20.67;20.67;36.00;30.30;;;;;;5079251;28;11695;-75
2022/06/07 10:25:16;;;;;;;;;18.00;18.00;36.10;30.90;;;;;;5094167;28;11432;-74
2022/06/07 10:28:00;;;;;;;;;22.00;22.00;36.00;30.80;;;;;;5094120;28;11457;-75
2022/06/07 10:30:38;;;;;;;;;23.00;23.00;35.90;29.90;;;;;;5075462;28;11462;-75
2022/06/07 10:33:33;;;;;;;;;21.33;21.33;35.80;30.00;;;;;;5094568;28;11583;-74
2022/06/07 10:35:58;;;;;;;;;20.67;20.67;36.20;30.10;;;;;;5091940;28;11448;-76
2022/06/07 10:38:40;;;;;;;;;22.33;22.33;36.00;29.50;;;;;;5094317;28;11486;-74
2022/06/07 10:41:38;;;;;;;;;21.00;21.00;36.20;29.70;;;;;;5094170;28;8925;-75
2022/06/07 10:44:15;;;;;;;;;21.67;21.67;36.40;29.80;;;;;;5094056;28;11523;-75
2022/06/07 10:46:43;;;;;;;;;24.00;24.00;36.20;29.60;;;;;;5094576;28;11474;-75
2022/06/07 10:49:44;;;;;;;;;22.67;22.67;35.70;29.70;;;;;;5094549;28;11452;-74
2022/06/07 10:52:24;;;;;;;;;21.00;21.00;35.50;30.00;;;;;;5098211;28;11449;-75
2022/06/07 10:54:53;;;;;;;;;23.67;23.67;35.30;30.10;;;;;;5098349;28;11448;-75
2022/06/07 10:57:25;;;;;;;;;23.33;23.33;35.50;31.20;;;;;;5098163;28;11464;-75
2022/06/07 10:59:52;;;;;;;;;20.00;20.00;35.90;29.70;;;;;;5097266;28;11478;-75
2022/06/07 11:02:37;;;;;;;;;22.00;22.00;36.00;29.90;;;;;;5098261;28;11437;-74
2022/06/07 11:11:10;;;;;;;;;15.33;15.33;37.40;29.00;;;;;;5098279;28;11438;-76
2022/06/07 11:13:49;;;;;;;;;15.00;15.00;36.90;28.50;;;;;;5098144;28;11443;-75
2022/06/07 11:16:40;;;;;;;;;22.00;22.00;36.50;29.20;;;;;;5090597;28;12170;-74
2022/06/07 11:19:09;;;;;;;;;21.67;21.67;36.30;29.50;;;;;;5083369;28;11588;-75
2022/06/07 11:21:42;;;;;;;;;18.00;18.00;36.40;29.10;;;;;;5087287;28;11577;-75
2022/06/07 11:24:15;;;;;;;;;20.67;20.67;36.60;28.80;;;;;;5095260;28;12127;-76
2022/06/07 11:26:52;;;;;;;;;19.25;19.25;36.70;28.60;;;;;;5092361;28;11447;-75
2022/06/07 11:29:22;;;;;;;;;19.33;19.33;36.50;28.90;;;;;;5096035;28;12605;-76
2022/06/07 11:31:49;;;;;;;;;21.67;21.67;36.40;29.00;;;;;;5091827;28;11465;-75
2022/06/07 11:34:36;;;;;;;;;18.00;18.00;36.60;29.00;;;;;;5093774;28;11434;-76
2022/06/07 11:37:08;;;;;;;;;22.67;22.67;36.90;29.30;;;;;;5091599;28;12519;-74
2022/06/07 11:39:51;;;;;;;;;22.33;22.33;36.60;29.10;;;;;;5096462;28;11474;-76
2022/06/07 11:42:17;;;;;;;;;21.00;21.00;36.70;29.30;;;;;;5095259;28;11456;-77
2022/06/07 11:44:43;;;;;;;;;22.67;22.67;37.00;29.70;;;;;;5092283;28;11459;-74
2022/06/07 11:47:15;;;;;;;;;22.00;22.00;37.50;28.70;;;;;;5097570;28;8799;-74
2022/06/07 11:50:02;;;;;;;;;19.33;19.33;37.00;28.40;;;;;;5083666;28;11547;-74
2022/06/07 11:52:34;;;;;;;;;18.00;18.00;36.80;28.70;;;;;;5090798;28;11447;-76
2022/06/07 11:55:17;;;;;;;;;23.00;23.00;36.90;29.10;;;;;;5085001;28;11582;-75
2022/06/07 11:58:00;;;;;;;;;23.67;23.67;36.40;29.20;;;;;;5076610;28;11600;-76
2022/06/07 12:00:29;;;;;;;;;27.00;27.00;35.80;30.00;;;;;;5076274;28;11450;-76
2022/06/07 12:03:00;;;;;;;;;22.67;22.67;36.20;29.90;;;;;;5076354;28;11463;-74
2022/06/07 12:05:43;;;;;;;;;22.00;22.00;36.20;29.80;;;;;;5076692;28;11469;-75
2022/06/07 12:08:55;;;;;;;;;24.00;24.00;36.20;29.40;;;;;;5085156;28;11540;-76
2022/06/07 12:11:27;;;;;;;;;25.67;25.67;36.30;30.00;;;;;;5001335;28;11565;-76
2022/06/07 12:14:25;;;;;;;;;21.33;21.33;36.40;29.60;;;;;;4999306;28;8786;-76
2022/06/07 12:17:03;;;;;;;;;23.33;23.33;36.60;29.50;;;;;;4990539;28;11576;-74
2022/06/07 12:19:35;;;;;;;;;21.67;21.67;36.90;29.40;;;;;;4995052;28;11617;-75
2022/06/07 12:22:06;;;;;;;;;24.00;24.00;37.10;28.60;;;;;;4994808;28;11538;-75
2022/06/07 12:24:45;;;;;;;;;22.00;22.00;36.90;28.60;;;;;;5019528;28;8903;-74
2022/06/07 12:27:29;;;;;;;;;24.67;24.67;36.70;29.00;;;;;;5002247;28;11521;-74
2022/06/07 12:30:01;;;;;;;;;21.00;21.00;36.40;29.20;;;;;;4994579;28;11656;-74
2022/06/07 12:32:33;;;;;;;;;23.67;23.67;36.00;29.90;;;;;;4994625;28;11502;-74
2022/06/07 12:35:17;;;;;;;;;21.67;21.67;36.60;29.70;;;;;;4994369;28;11502;-73
2022/06/07 12:38:03;;;;;;;;;21.33;21.33;36.40;28.80;;;;;;4994602;28;12176;-73
2022/06/07 12:41:01;;;;;;;;;22.00;22.00;36.60;29.30;;;;;;4993616;28;11494;-73
2022/06/07 12:43:32;;;;;;;;;18.33;18.33;36.60;29.00;;;;;;5075392;28;11462;-71
2022/06/07 12:46:04;;;;;;;;;22.00;22.00;37.10;29.00;;;;;;5075829;28;11487;-71
2022/06/07 12:48:39;;;;;;;;;14.67;14.67;37.50;28.10;;;;;;5086517;28;11534;-70
2022/06/07 12:51:30;;;;;;;;;21.00;21.00;36.80;28.30;;;;;;5087120;28;11460;-71
2022/06/07 12:54:06;;;;;;;;;19.25;19.25;36.30;28.80;;;;;;5105396;28;11430;-71
2022/06/07 12:56:35;;;;;;;;;25.00;25.00;36.50;29.10;;;;;;5103168;28;11534;-74
2022/06/07 12:59:10;;;;;;;;;21.00;21.00;37.30;28.50;;;;;;5095017;28;11462;-74
2022/06/07 13:01:41;;;;;;;;;25.33;25.00;37.30;28.50;;;;;;5095262;28;11462;-75
2022/06/07 13:04:32;;;;;;;;;18.00;18.00;36.90;28.40;;;;;;5095844;28;11437;-74
2022/06/07 13:07:19;;;;;;;;;19.67;19.67;36.90;28.60;;;;;;5095714;28;11437;-74
2022/06/07 13:09:53;;;;;;;;;20.75;20.75;37.00;28.50;;;;;;5095680;28;11446;-73
2022/06/07 13:12:43;;;;;;;;;21.00;21.00;37.30;28.60;;;;;;5086035;28;11456;-73
2022/06/07 13:15:14;;;;;;;;;19.25;19.25;37.20;28.10;;;;;;5074851;28;11465;-71
2022/06/07 13:17:51;;;;;;;;;21.25;21.25;37.30;27.80;;;;;;5076637;28;12183;-71
2022/06/07 13:20:37;;;;;;;;;19.50;19.50;37.80;28.00;;;;;;5095597;28;11532;-71